»·PEaware :: N112PC KSAC-KCXP

N112PC :: KSAC-KCXP

FLIGHT INFORMATION

Flight Status: Arrived
Operator: Privately registered:
United States
More flights under this callsign
Pilot: Gabor H. (24209)
Aircraft: PILATUS PC-12 EAGLE
(PC12)
More flights by this aircraft type
Origin: KSAC Sacramento Executive
United States
Destination: KCXP Carson
United States
More flights between these airports :: More routes between these airports
Route: MARRI
File this flight plan on PilotEdge
Remarks:
Altitude:
(Current/Filed)
13,000ft
Speed:
(Current/Filed)
240kts
Departed: 04-Jun-19 11:50 AM
Arrived: 04-Jun-19 12:22 PM
Distance/Time
Traveled:
91nm/0:32
Distance/Time
To Go:
Arrived

Flight Plot

Page will automatically refresh every two minutes.

Flight plan parsing failed; only flown route is shown


Map Options




Map Legend


Flown Route
Filed Route
Departure Airport
Arrival Airport
Navaid (VOR, NDB)
Fix

Horizontal Profiles

Position Reports

Time Latitude Longitude Heading Altitude Ground
Speed
04-Jun-19 11:30 38.515488 -121.498739 224 27ft 0kts
04-Jun-19 11:31 38.515488 -121.498739 224 27ft 0kts
04-Jun-19 11:32 38.515488 -121.498739 224 27ft 0kts
04-Jun-19 11:33 38.515488 -121.498739 224 27ft 0kts
04-Jun-19 11:34 38.515488 -121.498739 224 27ft 0kts
04-Jun-19 11:35 38.515488 -121.498739 224 27ft 0kts
04-Jun-19 11:36 38.515488 -121.498739 224 27ft 0kts
04-Jun-19 11:37 38.515488 -121.498739 224 27ft 0kts
04-Jun-19 11:38 38.515488 -121.498739 224 27ft 0kts
04-Jun-19 11:39 38.515488 -121.498739 224 27ft 0kts
04-Jun-19 11:40 38.515488 -121.498739 224 27ft 0kts
04-Jun-19 11:41 38.515485 -121.498742 224 27ft 0kts
04-Jun-19 11:42 38.515485 -121.498743 224 27ft 0kts
04-Jun-19 11:43 38.514453 -121.497736 131 27ft 6kts
04-Jun-19 11:44 38.513423 -121.495942 85 27ft 11kts
04-Jun-19 11:45 38.516675 -121.492973 32 27ft 18kts
04-Jun-19 11:46 38.518902 -121.491147 38 27ft 6kts
04-Jun-19 11:47 38.519157 -121.490184 99 27ft 0kts
04-Jun-19 11:48 38.518159 -121.489953 205 27ft 11kts
04-Jun-19 11:49 38.496614 -121.504436 179 751ft 144kts
04-Jun-19 11:50 38.456494 -121.490682 163 2291ft 163kts
04-Jun-19 11:51 38.408084 -121.471433 163 3821ft 195kts
04-Jun-19 11:52 38.381593 -121.415772 93 5324ft 208kts
04-Jun-19 11:53 38.394833 -121.342463 70 6839ft 222kts
04-Jun-19 11:54 38.413404 -121.265488 73 8354ft 235kts
04-Jun-19 11:55 38.431582 -121.185895 73 9853ft 237kts
04-Jun-19 11:56 38.451315 -121.105079 73 11357ft 239kts
04-Jun-19 11:57 38.469792 -121.022741 73 12818ft 246kts
04-Jun-19 11:58 38.489252 -120.934546 73 13041ft 267kts
04-Jun-19 11:59 38.509668 -120.842163 73 13070ft 270kts
04-Jun-19 12:00 38.530132 -120.749629 73 13093ft 270kts
04-Jun-19 12:01 38.550582 -120.657211 73 13130ft 271kts
04-Jun-19 12:02 38.571115 -120.563859 73 13076ft 276kts
04-Jun-19 12:03 38.591737 -120.469996 73 12940ft 272kts
04-Jun-19 12:04 38.612207 -120.376902 73 12959ft 271kts
04-Jun-19 12:05 38.632497 -120.284688 73 12993ft 269kts
04-Jun-19 12:06 38.652719 -120.192728 73 13029ft 268kts
04-Jun-19 12:07 38.673185 -120.099695 73 13040ft 273kts
04-Jun-19 12:08 38.693102 -120.009062 73 13094ft 269kts
04-Jun-19 12:09 38.713393 -119.916212 73 13079ft 273kts
04-Jun-19 12:10 38.733964 -119.822421 73 13071ft 275kts
04-Jun-19 12:11 38.755991 -119.727675 61 13023ft 278kts
04-Jun-19 12:12 38.823181 -119.698091 354 12819ft 273kts
04-Jun-19 12:13 38.898519 -119.708253 353 11194ft 253kts
04-Jun-19 12:14 38.963587 -119.715245 355 8899ft 231kts
04-Jun-19 12:15 39.024416 -119.711459 30 6515ft 216kts
04-Jun-19 12:16 39.069554 -119.687492 354 6516ft 170kts
04-Jun-19 12:17 39.117280 -119.691356 5 6504ft 171kts
04-Jun-19 12:18 39.161432 -119.679800 12 6129ft 154kts
04-Jun-19 12:19 39.185592 -119.704646 283 5353ft 122kts
04-Jun-19 12:20 39.192362 -119.735072 286 4700ft 41kts
04-Jun-19 12:21 39.194551 -119.744046 333 4700ft 10kts

Navigation Log

Ident Type
Flight plan parsing failed, navigation log unavailable